IBE107 LEST-LEIB
Flight info
| Callsign | IBE107 |
|---|---|
| Flight time | 1h 20m |
| Altitude | 34000 |
| Route | FORNO ZMR NVS LASPO VARUT |
| Aircraft | A320/M-SDE3FGHIRWY/LB1 |
Departure
| Time | 2026-04-30 08:51 |
|---|---|
| Airport | Santiago-Rosalía de Castro Airport (LEST) |
Arrival
| Time | 2026-04-30 10:12 |
|---|---|
| Airport | Ibiza Airport (LEIB) |
| Time | Latitude | Longitude | Altitude | Speed | Heading |
|---|---|---|---|---|---|
| 2026-04-30 08:40 | 42.89787 | -8.41934 | 1193 ft | 0 kts | 252° |
| 2026-04-30 08:41 | 42.89789 | -8.41926 | 1193 ft | 2 kts | 252° |
| 2026-04-30 08:41 | 42.89795 | -8.41903 | 1193 ft | 2 kts | 252° |
| 2026-04-30 08:41 | 42.89800 | -8.41881 | 1193 ft | 2 kts | 252° |
| 2026-04-30 08:41 | 42.89805 | -8.41859 | 1192 ft | 2 kts | 252° |
| 2026-04-30 08:42 | 42.89807 | -8.41835 | 1192 ft | 3 kts | 288° |
| 2026-04-30 08:42 | 42.89799 | -8.41813 | 1193 ft | 3 kts | 324° |
| 2026-04-30 08:42 | 42.89786 | -8.41804 | 1193 ft | 0 kts | 354° |
| 2026-04-30 08:43 | 42.89787 | -8.41804 | 1193 ft | 1 kts | 354° |
| 2026-04-30 08:44 | 42.89819 | -8.41808 | 1192 ft | 5 kts | 354° |
| 2026-04-30 08:44 | 42.89852 | -8.41817 | 1192 ft | 5 kts | 347° |
| 2026-04-30 08:44 | 42.89875 | -8.41824 | 1192 ft | 7 kts | 346° |
| 2026-04-30 08:44 | 42.89977 | -8.41860 | 1190 ft | 23 kts | 345° |
| 2026-04-30 08:45 | 42.90084 | -8.41896 | 1189 ft | 15 kts | 348° |
| 2026-04-30 08:45 | 42.90178 | -8.41929 | 1188 ft | 14 kts | 345° |
| 2026-04-30 08:45 | 42.90267 | -8.41958 | 1187 ft | 13 kts | 347° |
| 2026-04-30 08:45 | 42.90351 | -8.41986 | 1186 ft | 12 kts | 346° |
| 2026-04-30 08:46 | 42.90429 | -8.42013 | 1186 ft | 11 kts | 346° |
| 2026-04-30 08:46 | 42.90503 | -8.42038 | 1185 ft | 11 kts | 346° |
| 2026-04-30 08:46 | 42.90573 | -8.42062 | 1184 ft | 10 kts | 346° |
| 2026-04-30 08:46 | 42.90640 | -8.42085 | 1183 ft | 10 kts | 346° |
| 2026-04-30 08:47 | 42.90703 | -8.42106 | 1182 ft | 9 kts | 346° |
| 2026-04-30 08:47 | 42.90763 | -8.42126 | 1181 ft | 9 kts | 346° |
| 2026-04-30 08:47 | 42.90820 | -8.42145 | 1181 ft | 8 kts | 346° |
| 2026-04-30 08:47 | 42.90875 | -8.42163 | 1180 ft | 8 kts | 346° |
| 2026-04-30 08:48 | 42.90927 | -8.42181 | 1177 ft | 8 kts | 346° |
| 2026-04-30 08:48 | 42.91010 | -8.42209 | 1178 ft | 13 kts | 346° |
| 2026-04-30 08:48 | 42.91095 | -8.42238 | 1174 ft | 12 kts | 346° |
| 2026-04-30 08:48 | 42.91105 | -8.42241 | 1177 ft | 0 kts | 346° |
| 2026-04-30 08:49 | 42.91126 | -8.42232 | 1177 ft | 7 kts | 25° |
| 2026-04-30 08:49 | 42.91161 | -8.42191 | 1177 ft | 6 kts | 70° |
| 2026-04-30 08:49 | 42.91167 | -8.42133 | 1176 ft | 7 kts | 83° |
| 2026-04-30 08:50 | 42.91148 | -8.42045 | 1173 ft | 12 kts | 128° |
| 2026-04-30 08:50 | 42.91071 | -8.41995 | 1176 ft | 13 kts | 163° |
| 2026-04-30 08:50 | 42.90960 | -8.41954 | 1178 ft | 32 kts | 166° |
| 2026-04-30 08:50 | 42.90506 | -8.41808 | 1188 ft | 99 kts | 166° |
| 2026-04-30 08:51 | 42.89649 | -8.41523 | 1196 ft | 151 kts | 166° |
| 2026-04-30 08:51 | 42.88597 | -8.41193 | 1748 ft | 152 kts | 169° |
| 2026-04-30 08:51 | 42.87594 | -8.40903 | 2488 ft | 149 kts | 171° |
| 2026-04-30 08:51 | 42.86567 | -8.40577 | 2983 ft | 161 kts | 171° |
| 2026-04-30 08:52 | 42.85409 | -8.40254 | 3335 ft | 178 kts | 171° |
| 2026-04-30 08:52 | 42.84125 | -8.39877 | 3620 ft | 199 kts | 169° |
| 2026-04-30 08:52 | 42.82787 | -8.39007 | 3916 ft | 230 kts | 145° |
| 2026-04-30 08:52 | 42.81650 | -8.37312 | 4341 ft | 257 kts | 125° |
| 2026-04-30 08:53 | 42.80981 | -8.34991 | 5033 ft | 272 kts | 102° |
| 2026-04-30 08:53 | 42.80975 | -8.32380 | 5856 ft | 280 kts | 86° |
| 2026-04-30 08:53 | 42.81181 | -8.29727 | 6743 ft | 283 kts | 86° |
| 2026-04-30 08:53 | 42.81383 | -8.27069 | 7593 ft | 287 kts | 86° |
| 2026-04-30 08:54 | 42.81460 | -8.26052 | 7916 ft | 289 kts | 86° |
| 2026-04-30 08:54 | 42.81667 | -8.23315 | 8766 ft | 293 kts | 86° |
| 2026-04-30 08:55 | 42.81713 | -8.20538 | 9560 ft | 294 kts | 99° |
| 2026-04-30 08:55 | 42.81204 | -8.17844 | 10303 ft | 295 kts | 116° |
| 2026-04-30 08:55 | 42.80182 | -8.15402 | 10902 ft | 304 kts | 126° |
| 2026-04-30 08:55 | 42.78960 | -8.12921 | 11123 ft | 327 kts | 126° |
| 2026-04-30 08:56 | 42.77641 | -8.10256 | 11300 ft | 351 kts | 126° |
| 2026-04-30 08:56 | 42.76231 | -8.07407 | 11422 ft | 374 kts | 126° |
| 2026-04-30 08:56 | 42.74741 | -8.04392 | 11576 ft | 393 kts | 126° |
| 2026-04-30 08:56 | 42.73196 | -8.01260 | 12024 ft | 402 kts | 126° |
| 2026-04-30 08:57 | 42.71634 | -7.98087 | 12604 ft | 407 kts | 126° |
| 2026-04-30 08:57 | 42.70054 | -7.94878 | 13163 ft | 411 kts | 126° |
| 2026-04-30 08:57 | 42.68455 | -7.91633 | 13738 ft | 415 kts | 126° |
| 2026-04-30 08:57 | 42.66840 | -7.88362 | 14252 ft | 418 kts | 126° |
| 2026-04-30 08:58 | 42.65211 | -7.85069 | 14743 ft | 422 kts | 126° |
| 2026-04-30 08:58 | 42.63567 | -7.81749 | 15217 ft | 425 kts | 126° |
| 2026-04-30 08:58 | 42.61905 | -7.78403 | 15706 ft | 429 kts | 126° |
| 2026-04-30 08:58 | 42.60228 | -7.75031 | 16195 ft | 432 kts | 126° |
| 2026-04-30 08:59 | 42.58543 | -7.71639 | 16675 ft | 435 kts | 126° |
| 2026-04-30 08:59 | 42.56840 | -7.68212 | 17155 ft | 439 kts | 125° |
| 2026-04-30 08:59 | 42.55128 | -7.64768 | 17616 ft | 442 kts | 126° |
| 2026-04-30 08:59 | 42.53398 | -7.61296 | 18067 ft | 446 kts | 126° |
| 2026-04-30 09:00 | 42.51652 | -7.57802 | 18490 ft | 449 kts | 126° |
| 2026-04-30 09:00 | 42.49890 | -7.54292 | 18869 ft | 452 kts | 126° |
| 2026-04-30 09:00 | 42.48117 | -7.50758 | 19245 ft | 455 kts | 126° |
| 2026-04-30 09:00 | 42.46217 | -7.47394 | 19593 ft | 456 kts | 133° |
| 2026-04-30 09:01 | 42.44014 | -7.44302 | 19948 ft | 458 kts | 136° |
| 2026-04-30 09:01 | 42.41763 | -7.41230 | 20311 ft | 461 kts | 136° |
| 2026-04-30 09:01 | 42.39502 | -7.38138 | 20654 ft | 463 kts | 136° |
| 2026-04-30 09:01 | 42.37228 | -7.35028 | 21006 ft | 466 kts | 136° |
| 2026-04-30 09:02 | 42.32639 | -7.28759 | 21667 ft | 471 kts | 136° |
| 2026-04-30 09:02 | 42.30325 | -7.25607 | 21982 ft | 474 kts | 136° |
| 2026-04-30 09:02 | 42.27993 | -7.22435 | 22286 ft | 476 kts | 136° |
| 2026-04-30 09:03 | 42.25653 | -7.19254 | 22578 ft | 479 kts | 136° |
| 2026-04-30 09:03 | 42.23300 | -7.16059 | 22866 ft | 481 kts | 136° |
| 2026-04-30 09:03 | 42.20931 | -7.12844 | 23150 ft | 483 kts | 136° |
| 2026-04-30 09:03 | 42.18554 | -7.09623 | 23457 ft | 486 kts | 136° |
| 2026-04-30 09:04 | 42.16165 | -7.06389 | 23729 ft | 488 kts | 136° |
| 2026-04-30 09:04 | 42.13765 | -7.03137 | 23999 ft | 490 kts | 137° |
| 2026-04-30 09:04 | 42.11364 | -6.99887 | 24364 ft | 489 kts | 137° |
| 2026-04-30 09:04 | 42.08967 | -6.96650 | 24756 ft | 488 kts | 137° |
| 2026-04-30 09:05 | 42.06568 | -6.93419 | 25133 ft | 487 kts | 137° |
| 2026-04-30 09:05 | 42.04175 | -6.90202 | 25512 ft | 486 kts | 137° |
| 2026-04-30 09:05 | 42.01786 | -6.86992 | 25877 ft | 486 kts | 137° |
| 2026-04-30 09:05 | 41.99394 | -6.83779 | 26265 ft | 485 kts | 137° |
| 2026-04-30 09:06 | 41.97005 | -6.80576 | 26644 ft | 485 kts | 137° |
| 2026-04-30 09:06 | 41.94621 | -6.77385 | 27029 ft | 484 kts | 137° |
| 2026-04-30 09:06 | 41.92235 | -6.74195 | 27418 ft | 483 kts | 137° |
| 2026-04-30 09:06 | 41.89857 | -6.71014 | 27821 ft | 483 kts | 138° |
| 2026-04-30 09:07 | 41.87480 | -6.67835 | 28221 ft | 482 kts | 138° |
| 2026-04-30 09:07 | 41.85105 | -6.64660 | 28619 ft | 481 kts | 138° |
| 2026-04-30 09:07 | 41.82735 | -6.61498 | 29020 ft | 481 kts | 138° |
| 2026-04-30 09:07 | 41.80456 | -6.58208 | 29413 ft | 483 kts | 131° |
| 2026-04-30 09:08 | 41.78550 | -6.54484 | 29802 ft | 486 kts | 122° |
| 2026-04-30 09:08 | 41.77095 | -6.50382 | 30179 ft | 489 kts | 112° |
| 2026-04-30 09:08 | 41.75933 | -6.46106 | 30490 ft | 489 kts | 112° |
| 2026-04-30 09:08 | 41.74766 | -6.41827 | 30800 ft | 489 kts | 112° |
| 2026-04-30 09:09 | 41.73589 | -6.37565 | 31119 ft | 488 kts | 112° |
| 2026-04-30 09:09 | 41.72404 | -6.33301 | 31444 ft | 488 kts | 112° |
| 2026-04-30 09:09 | 41.71222 | -6.29041 | 31758 ft | 488 kts | 112° |
| 2026-04-30 09:09 | 41.70045 | -6.24783 | 32071 ft | 488 kts | 112° |
| 2026-04-30 09:10 | 41.68866 | -6.20524 | 32402 ft | 488 kts | 113° |
| 2026-04-30 09:10 | 41.67685 | -6.16270 | 32717 ft | 487 kts | 113° |
| 2026-04-30 09:10 | 41.66503 | -6.12022 | 33028 ft | 487 kts | 113° |
| 2026-04-30 09:10 | 41.65321 | -6.07779 | 33345 ft | 487 kts | 113° |
| 2026-04-30 09:11 | 41.64138 | -6.03535 | 33649 ft | 487 kts | 113° |
| 2026-04-30 09:11 | 41.62972 | -5.99351 | 33965 ft | 487 kts | 113° |
| 2026-04-30 09:11 | 41.61785 | -5.95099 | 34084 ft | 489 kts | 113° |
| 2026-04-30 09:11 | 41.60585 | -5.90817 | 34099 ft | 494 kts | 113° |
| 2026-04-30 09:12 | 41.58167 | -5.82194 | 34098 ft | 497 kts | 114° |
| 2026-04-30 09:12 | 41.55725 | -5.73558 | 34099 ft | 497 kts | 114° |
| 2026-04-30 09:13 | 41.52832 | -5.65229 | 34104 ft | 491 kts | 127° |
| 2026-04-30 09:13 | 41.48466 | -5.58381 | 34105 ft | 481 kts | 142° |
| 2026-04-30 09:14 | 41.43528 | -5.52365 | 34100 ft | 481 kts | 142° |
| 2026-04-30 09:14 | 41.38593 | -5.46331 | 34097 ft | 481 kts | 142° |
| 2026-04-30 09:15 | 41.33659 | -5.40312 | 34095 ft | 481 kts | 142° |
| 2026-04-30 09:15 | 41.28718 | -5.34302 | 34092 ft | 481 kts | 142° |
| 2026-04-30 09:16 | 41.23788 | -5.28287 | 34092 ft | 482 kts | 139° |
| 2026-04-30 09:16 | 41.21702 | -5.24753 | 34093 ft | 491 kts | 123° |
| 2026-04-30 09:16 | 41.20271 | -5.20617 | 34088 ft | 495 kts | 115° |
| 2026-04-30 09:17 | 41.17736 | -5.12105 | 34086 ft | 496 kts | 115° |
| 2026-04-30 09:17 | 41.15219 | -5.03580 | 34089 ft | 496 kts | 115° |
| 2026-04-30 09:18 | 41.12677 | -4.95063 | 34087 ft | 497 kts | 115° |
| 2026-04-30 09:18 | 41.10116 | -4.86548 | 34090 ft | 497 kts | 115° |
| 2026-04-30 09:19 | 41.07546 | -4.78039 | 34091 ft | 498 kts | 115° |
| 2026-04-30 09:19 | 41.04967 | -4.69511 | 34092 ft | 498 kts | 115° |
| 2026-04-30 09:20 | 41.02390 | -4.60996 | 34092 ft | 498 kts | 115° |
| 2026-04-30 09:20 | 40.99808 | -4.52486 | 34087 ft | 498 kts | 115° |
| 2026-04-30 09:21 | 40.97211 | -4.43979 | 34087 ft | 498 kts | 115° |
| 2026-04-30 09:21 | 40.94620 | -4.35528 | 34096 ft | 499 kts | 115° |
| 2026-04-30 09:22 | 40.92005 | -4.27031 | 34091 ft | 499 kts | 115° |
| 2026-04-30 09:22 | 40.89388 | -4.18536 | 34089 ft | 499 kts | 116° |
| 2026-04-30 09:23 | 40.86766 | -4.10046 | 34097 ft | 499 kts | 116° |
| 2026-04-30 09:23 | 40.84136 | -4.01557 | 34093 ft | 499 kts | 116° |
| 2026-04-30 09:24 | 40.81506 | -3.93088 | 34088 ft | 499 kts | 116° |
| 2026-04-30 09:24 | 40.78860 | -3.84590 | 34093 ft | 499 kts | 116° |
| 2026-04-30 09:25 | 40.76212 | -3.76126 | 34094 ft | 499 kts | 116° |
| 2026-04-30 09:25 | 40.73547 | -3.67664 | 34091 ft | 500 kts | 116° |
| 2026-04-30 09:26 | 40.70872 | -3.59199 | 34092 ft | 500 kts | 116° |
| 2026-04-30 09:26 | 40.68652 | -3.52154 | 34090 ft | 500 kts | 116° |
| 2026-04-30 09:27 | 40.65967 | -3.43695 | 34091 ft | 500 kts | 116° |
| 2026-04-30 09:27 | 40.63284 | -3.35247 | 34093 ft | 501 kts | 116° |
| 2026-04-30 09:28 | 40.60598 | -3.26789 | 34088 ft | 501 kts | 116° |
| 2026-04-30 09:28 | 40.57898 | -3.18344 | 34089 ft | 501 kts | 116° |
| 2026-04-30 09:29 | 40.55186 | -3.09895 | 34088 ft | 501 kts | 117° |
| 2026-04-30 09:29 | 40.52468 | -3.01467 | 34090 ft | 501 kts | 117° |
| 2026-04-30 09:30 | 40.49765 | -2.93098 | 34091 ft | 501 kts | 117° |
| 2026-04-30 09:30 | 40.47043 | -2.84678 | 34104 ft | 501 kts | 117° |
| 2026-04-30 09:31 | 40.44314 | -2.76270 | 34101 ft | 501 kts | 117° |
| 2026-04-30 09:31 | 40.41574 | -2.67861 | 34101 ft | 500 kts | 117° |
| 2026-04-30 09:32 | 40.38827 | -2.59471 | 34090 ft | 500 kts | 117° |
| 2026-04-30 09:32 | 40.35858 | -2.51250 | 34093 ft | 497 kts | 123° |
| 2026-04-30 09:33 | 40.32549 | -2.43298 | 34088 ft | 497 kts | 123° |
| 2026-04-30 09:33 | 40.29239 | -2.35346 | 34091 ft | 497 kts | 123° |
| 2026-04-30 09:34 | 40.25916 | -2.27410 | 34090 ft | 497 kts | 123° |
| 2026-04-30 09:34 | 40.22609 | -2.19535 | 34095 ft | 496 kts | 123° |
| 2026-04-30 09:35 | 40.19272 | -2.11629 | 34093 ft | 496 kts | 123° |
| 2026-04-30 09:35 | 40.15917 | -2.03741 | 34100 ft | 496 kts | 123° |
| 2026-04-30 09:36 | 40.12551 | -1.95874 | 34097 ft | 496 kts | 123° |
| 2026-04-30 09:36 | 40.09207 | -1.87989 | 34095 ft | 496 kts | 123° |
| 2026-04-30 09:37 | 40.05870 | -1.80106 | 34096 ft | 496 kts | 123° |
| 2026-04-30 09:37 | 40.02517 | -1.72230 | 34091 ft | 496 kts | 123° |
| 2026-04-30 09:38 | 39.99176 | -1.64421 | 34092 ft | 496 kts | 123° |
| 2026-04-30 09:38 | 39.95810 | -1.56575 | 34086 ft | 495 kts | 123° |
| 2026-04-30 09:39 | 39.92439 | -1.48745 | 34080 ft | 495 kts | 123° |
| 2026-04-30 09:39 | 39.89068 | -1.40910 | 34074 ft | 495 kts | 123° |
| 2026-04-30 09:40 | 39.85701 | -1.33104 | 34074 ft | 495 kts | 123° |
| 2026-04-30 09:40 | 39.82320 | -1.25305 | 34069 ft | 494 kts | 123° |
| 2026-04-30 09:41 | 39.78942 | -1.17527 | 34063 ft | 494 kts | 123° |
| 2026-04-30 09:41 | 39.77561 | -1.14357 | 34069 ft | 494 kts | 123° |
| 2026-04-30 09:42 | 39.75390 | -1.09303 | 34067 ft | 494 kts | 123° |
| 2026-04-30 09:43 | 39.71232 | -1.02407 | 34067 ft | 479 kts | 144° |
| 2026-04-30 09:43 | 39.65747 | -0.97784 | 34065 ft | 465 kts | 161° |
| 2026-04-30 09:44 | 39.59649 | -0.95366 | 34062 ft | 456 kts | 173° |
| 2026-04-30 09:44 | 39.53458 | -0.93553 | 34063 ft | 456 kts | 173° |
| 2026-04-30 09:45 | 39.47430 | -0.90819 | 34061 ft | 468 kts | 155° |
| 2026-04-30 09:45 | 39.42365 | -0.85468 | 34068 ft | 482 kts | 134° |
| 2026-04-30 09:46 | 39.38551 | -0.78186 | 33852 ft | 490 kts | 124° |
| 2026-04-30 09:46 | 39.36840 | -0.74371 | 33521 ft | 491 kts | 123° |
| 2026-04-30 09:46 | 39.35192 | -0.70493 | 33191 ft | 492 kts | 122° |
| 2026-04-30 09:47 | 39.33586 | -0.66649 | 32882 ft | 493 kts | 122° |
| 2026-04-30 09:47 | 39.31925 | -0.62716 | 32564 ft | 493 kts | 122° |
| 2026-04-30 09:47 | 39.30276 | -0.58897 | 32254 ft | 493 kts | 123° |
| 2026-04-30 09:47 | 39.28690 | -0.54958 | 31951 ft | 497 kts | 117° |
| 2026-04-30 09:48 | 39.27489 | -0.50760 | 31648 ft | 501 kts | 109° |
| 2026-04-30 09:48 | 39.26561 | -0.46422 | 31356 ft | 502 kts | 108° |
| 2026-04-30 09:48 | 39.25650 | -0.42064 | 31062 ft | 503 kts | 108° |
| 2026-04-30 09:48 | 39.24748 | -0.37700 | 30801 ft | 504 kts | 108° |
| 2026-04-30 09:49 | 39.23849 | -0.33339 | 30527 ft | 504 kts | 108° |
| 2026-04-30 09:49 | 39.22943 | -0.28966 | 30274 ft | 505 kts | 108° |
| 2026-04-30 09:49 | 39.22031 | -0.24590 | 29987 ft | 505 kts | 108° |
| 2026-04-30 09:49 | 39.21111 | -0.20221 | 29684 ft | 505 kts | 108° |
| 2026-04-30 09:50 | 39.20183 | -0.15845 | 29379 ft | 506 kts | 108° |
| 2026-04-30 09:50 | 39.19255 | -0.11469 | 29076 ft | 506 kts | 108° |
| 2026-04-30 09:50 | 39.18323 | -0.07092 | 28787 ft | 507 kts | 108° |
| 2026-04-30 09:50 | 39.17389 | -0.02707 | 28477 ft | 507 kts | 108° |
| 2026-04-30 09:51 | 39.16457 | 0.01672 | 28188 ft | 507 kts | 108° |
| 2026-04-30 09:51 | 39.15522 | 0.06064 | 27902 ft | 508 kts | 108° |
| 2026-04-30 09:51 | 39.14587 | 0.10451 | 27612 ft | 508 kts | 108° |
| 2026-04-30 09:51 | 39.13662 | 0.14779 | 27334 ft | 509 kts | 108° |
| 2026-04-30 09:52 | 39.12721 | 0.19177 | 27050 ft | 509 kts | 108° |
| 2026-04-30 09:52 | 39.11779 | 0.23572 | 26771 ft | 509 kts | 108° |
| 2026-04-30 09:52 | 39.10834 | 0.27958 | 26497 ft | 510 kts | 108° |
| 2026-04-30 09:52 | 39.09882 | 0.32354 | 26225 ft | 510 kts | 108° |
| 2026-04-30 09:53 | 39.08927 | 0.36750 | 25952 ft | 510 kts | 108° |
| 2026-04-30 09:53 | 39.07971 | 0.41152 | 25681 ft | 511 kts | 108° |
| 2026-04-30 09:53 | 39.07013 | 0.45558 | 25281 ft | 511 kts | 108° |
| 2026-04-30 09:53 | 39.06054 | 0.49963 | 24875 ft | 512 kts | 108° |
| 2026-04-30 09:54 | 39.05096 | 0.54368 | 24478 ft | 512 kts | 108° |
| 2026-04-30 09:54 | 39.04138 | 0.58768 | 24109 ft | 509 kts | 108° |
| 2026-04-30 09:54 | 39.03185 | 0.63142 | 23746 ft | 507 kts | 108° |
| 2026-04-30 09:54 | 39.02109 | 0.67439 | 23333 ft | 501 kts | 114° |
| 2026-04-30 09:55 | 39.00627 | 0.71468 | 22898 ft | 495 kts | 121° |
| 2026-04-30 09:55 | 38.99024 | 0.75373 | 22494 ft | 492 kts | 121° |
| 2026-04-30 09:55 | 38.97434 | 0.79253 | 22053 ft | 489 kts | 120° |
| 2026-04-30 09:55 | 38.95859 | 0.83103 | 21631 ft | 486 kts | 120° |
| 2026-04-30 09:56 | 38.94295 | 0.86933 | 21236 ft | 483 kts | 120° |
| 2026-04-30 09:56 | 38.92761 | 0.90689 | 20836 ft | 479 kts | 120° |
| 2026-04-30 09:56 | 38.91216 | 0.94470 | 20447 ft | 476 kts | 120° |
| 2026-04-30 09:56 | 38.89836 | 0.98317 | 20052 ft | 476 kts | 112° |
| 2026-04-30 09:57 | 38.88865 | 1.02377 | 19689 ft | 474 kts | 107° |
| 2026-04-30 09:57 | 38.88018 | 1.06453 | 19354 ft | 472 kts | 107° |
| 2026-04-30 09:57 | 38.87167 | 1.10504 | 18994 ft | 467 kts | 107° |
| 2026-04-30 09:57 | 38.86319 | 1.14511 | 18160 ft | 465 kts | 107° |
| 2026-04-30 09:58 | 38.85471 | 1.18507 | 17469 ft | 460 kts | 107° |
| 2026-04-30 09:58 | 38.84633 | 1.22448 | 17067 ft | 456 kts | 107° |
| 2026-04-30 09:58 | 38.83800 | 1.26352 | 16700 ft | 453 kts | 107° |
| 2026-04-30 09:58 | 38.82968 | 1.30235 | 16321 ft | 447 kts | 107° |
| 2026-04-30 09:59 | 38.81374 | 1.37726 | 15578 ft | 425 kts | 105° |
| 2026-04-30 09:59 | 38.81431 | 1.45099 | 14854 ft | 410 kts | 75° |
| 2026-04-30 10:00 | 38.83760 | 1.51619 | 14141 ft | 396 kts | 62° |
| 2026-04-30 10:00 | 38.85042 | 1.54706 | 13777 ft | 389 kts | 62° |
| 2026-04-30 10:01 | 38.87528 | 1.60722 | 13086 ft | 372 kts | 62° |
| 2026-04-30 10:01 | 38.88700 | 1.63581 | 12748 ft | 353 kts | 62° |
| 2026-04-30 10:01 | 38.89817 | 1.66308 | 12426 ft | 337 kts | 62° |
| 2026-04-30 10:02 | 38.91922 | 1.71445 | 11743 ft | 319 kts | 62° |
| 2026-04-30 10:02 | 38.92952 | 1.73961 | 11393 ft | 315 kts | 62° |
| 2026-04-30 10:02 | 38.93952 | 1.76406 | 11049 ft | 304 kts | 63° |
| 2026-04-30 10:02 | 38.94921 | 1.78771 | 10713 ft | 294 kts | 63° |
| 2026-04-30 10:03 | 38.95858 | 1.81056 | 10389 ft | 287 kts | 63° |
| 2026-04-30 10:03 | 38.96793 | 1.83315 | 10057 ft | 286 kts | 59° |
| 2026-04-30 10:03 | 38.98155 | 1.85125 | 9713 ft | 283 kts | 26° |
| 2026-04-30 10:03 | 39.00020 | 1.85694 | 9355 ft | 275 kts | 352° |
| 2026-04-30 10:04 | 39.01798 | 1.85049 | 8984 ft | 260 kts | 327° |
| 2026-04-30 10:04 | 39.03159 | 1.83646 | 8628 ft | 246 kts | 306° |
| 2026-04-30 10:04 | 39.03967 | 1.81819 | 8294 ft | 234 kts | 285° |
| 2026-04-30 10:04 | 39.04218 | 1.79795 | 7904 ft | 227 kts | 266° |
| 2026-04-30 10:05 | 39.03913 | 1.77839 | 7511 ft | 222 kts | 247° |
| 2026-04-30 10:05 | 39.03221 | 1.76078 | 7096 ft | 220 kts | 242° |
| 2026-04-30 10:05 | 39.02499 | 1.74312 | 6544 ft | 226 kts | 242° |
| 2026-04-30 10:05 | 39.01757 | 1.72498 | 5946 ft | 232 kts | 243° |
| 2026-04-30 10:06 | 39.01005 | 1.70661 | 5472 ft | 231 kts | 243° |
| 2026-04-30 10:06 | 39.00264 | 1.68850 | 5147 ft | 229 kts | 243° |
| 2026-04-30 10:06 | 38.99532 | 1.67063 | 4850 ft | 222 kts | 243° |
| 2026-04-30 10:06 | 38.98824 | 1.65337 | 4560 ft | 215 kts | 244° |
| 2026-04-30 10:07 | 38.98139 | 1.63665 | 4292 ft | 208 kts | 244° |
| 2026-04-30 10:07 | 38.97473 | 1.62042 | 4012 ft | 203 kts | 244° |
| 2026-04-30 10:07 | 38.96822 | 1.60457 | 3747 ft | 198 kts | 244° |
| 2026-04-30 10:07 | 38.96188 | 1.58914 | 3486 ft | 193 kts | 244° |
| 2026-04-30 10:08 | 38.95571 | 1.57412 | 3233 ft | 188 kts | 244° |
| 2026-04-30 10:08 | 38.94966 | 1.55939 | 2995 ft | 185 kts | 244° |
| 2026-04-30 10:08 | 38.94368 | 1.54484 | 2751 ft | 184 kts | 244° |
| 2026-04-30 10:08 | 38.93749 | 1.52978 | 2502 ft | 195 kts | 244° |
| 2026-04-30 10:09 | 38.93119 | 1.51449 | 2246 ft | 191 kts | 244° |
| 2026-04-30 10:09 | 38.92511 | 1.49974 | 1994 ft | 188 kts | 244° |
| 2026-04-30 10:09 | 38.91906 | 1.48507 | 1749 ft | 183 kts | 244° |
| 2026-04-30 10:09 | 38.91329 | 1.47110 | 1510 ft | 171 kts | 244° |
| 2026-04-30 10:10 | 38.90794 | 1.45812 | 1309 ft | 157 kts | 245° |
| 2026-04-30 10:10 | 38.90294 | 1.44608 | 1055 ft | 150 kts | 245° |
| 2026-04-30 10:10 | 38.89828 | 1.43439 | 863 ft | 145 kts | 245° |
| 2026-04-30 10:10 | 38.89368 | 1.42294 | 659 ft | 144 kts | 242° |
| 2026-04-30 10:11 | 38.88894 | 1.41169 | 479 ft | 143 kts | 242° |
| 2026-04-30 10:11 | 38.88424 | 1.40025 | 310 ft | 146 kts | 239° |
| 2026-04-30 10:11 | 38.87928 | 1.38881 | 100 ft | 150 kts | 239° |
| 2026-04-30 10:11 | 38.87462 | 1.37746 | 32 ft | 129 kts | 240° |
| 2026-04-30 10:12 | 38.87120 | 1.36915 | 29 ft | 81 kts | 242° |
| 2026-04-30 10:12 | 38.86956 | 1.36517 | 28 ft | 15 kts | 242° |
| 2026-04-30 10:12 | 38.86910 | 1.36400 | 27 ft | 14 kts | 245° |
| 2026-04-30 10:12 | 38.86889 | 1.36294 | 28 ft | 10 kts | 303° |
| 2026-04-30 10:13 | 38.86937 | 1.36238 | 29 ft | 8 kts | 326° |
| 2026-04-30 10:13 | 38.86977 | 1.36211 | 30 ft | 5 kts | 341° |
| 2026-04-30 10:13 | 38.87029 | 1.36250 | 31 ft | 14 kts | 56° |
| 2026-04-30 10:13 | 38.87076 | 1.36358 | 32 ft | 14 kts | 63° |
| 2026-04-30 10:14 | 38.87124 | 1.36475 | 34 ft | 15 kts | 61° |
| 2026-04-30 10:14 | 38.87177 | 1.36601 | 34 ft | 16 kts | 62° |
| 2026-04-30 10:14 | 38.87304 | 1.36844 | 38 ft | 15 kts | 2° |
| 2026-04-30 10:15 | 38.87385 | 1.36798 | 41 ft | 11 kts | 331° |
| 2026-04-30 10:15 | 38.87437 | 1.36806 | 42 ft | 6 kts | 44° |
| 2026-04-30 10:15 | 38.87456 | 1.36846 | 44 ft | 6 kts | 57° |
| 2026-04-30 10:15 | 38.87482 | 1.36901 | 44 ft | 9 kts | 64° |
| 2026-04-30 10:16 | 38.87526 | 1.36946 | 46 ft | 7 kts | 349° |
| 2026-04-30 10:16 | 38.87557 | 1.36928 | 47 ft | 3 kts | 331° |
| 2026-04-30 10:16 | 38.87563 | 1.36924 | 48 ft | 0 kts | 332° |